sensor_id;sensor_type;location;lat;lon;timestamp;pressure;altitude;pressure_sealevel;temperature;humidity
74125;BME280;62475;52.192;5.396;2022-08-05T00:01:51;101657.94;;;19.35;78.44
74125;BME280;62475;52.192;5.396;2022-08-05T00:04:17;101671.72;;;19.32;78.24
74125;BME280;62475;52.192;5.396;2022-08-05T00:06:42;101653.19;;;19.18;78.99
74125;BME280;62475;52.192;5.396;2022-08-05T00:09:07;101673.34;;;19.33;77.98
74125;BME280;62475;52.192;5.396;2022-08-05T00:11:33;101678.22;;;19.27;78.57
74125;BME280;62475;52.192;5.396;2022-08-05T00:13:58;101674.66;;;19.27;78.69
74125;BME280;62475;52.192;5.396;2022-08-05T00:16:24;101684.13;;;19.25;78.09
74125;BME280;62475;52.192;5.396;2022-08-05T00:18:49;101692.16;;;19.27;78.73
74125;BME280;62475;52.192;5.396;2022-08-05T00:21:16;101682.84;;;19.23;77.55
74125;BME280;62475;52.192;5.396;2022-08-05T00:23:43;101667.97;;;19.10;77.79
74125;BME280;62475;52.192;5.396;2022-08-05T00:26:09;101674.53;;;19.14;78.01
74125;BME280;62475;52.192;5.396;2022-08-05T00:28:35;101667.63;;;19.12;78.26
74125;BME280;62475;52.192;5.396;2022-08-05T00:31:01;101667.63;;;19.12;78.36
74125;BME280;62475;52.192;5.396;2022-08-05T00:33:27;101665.50;;;19.09;78.41
74125;BME280;62475;52.192;5.396;2022-08-05T00:35:53;101658.63;;;19.06;78.97
74125;BME280;62475;52.192;5.396;2022-08-05T00:38:18;101655.53;;;18.99;79.06
74125;BME280;62475;52.192;5.396;2022-08-05T00:40:49;101626.59;;;18.83;79.19
74125;BME280;62475;52.192;5.396;2022-08-05T00:43:15;101660.78;;;18.92;79.36
74125;BME280;62475;52.192;5.396;2022-08-05T00:45:41;101657.34;;;18.87;78.85
74125;BME280;62475;52.192;5.396;2022-08-05T00:48:07;101667.19;;;18.84;79.54
74125;BME280;62475;52.192;5.396;2022-08-05T00:50:33;101666.34;;;18.84;79.73
74125;BME280;62475;52.192;5.396;2022-08-05T00:52:58;101661.94;;;18.83;79.01
74125;BME280;62475;52.192;5.396;2022-08-05T00:55:23;101663.59;;;18.75;79.92
74125;BME280;62475;52.192;5.396;2022-08-05T00:57:48;101670.81;;;18.76;79.66
74125;BME280;62475;52.192;5.396;2022-08-05T01:00:14;101672.44;;;18.77;79.95
74125;BME280;62475;52.192;5.396;2022-08-05T01:02:39;101671.63;;;18.68;79.23
74125;BME280;62475;52.192;5.396;2022-08-05T01:05:05;101671.94;;;18.75;80.16
74125;BME280;62475;52.192;5.396;2022-08-05T01:07:30;101648.84;;;18.66;78.92
74125;BME280;62475;52.192;5.396;2022-08-05T01:09:55;101669.16;;;18.75;80.11
74125;BME280;62475;52.192;5.396;2022-08-05T01:12:22;101670.94;;;18.71;79.94
74125;BME280;62475;52.192;5.396;2022-08-05T01:15:03;101677.19;;;18.68;80.25
74125;BME280;62475;52.192;5.396;2022-08-05T01:17:38;101663.59;;;18.58;79.88
74125;BME280;62475;52.192;5.396;2022-08-05T01:28:20;101677.69;;;18.53;80.62
74125;BME280;62475;52.192;5.396;2022-08-05T01:31:09;101676.84;;;18.53;80.64
74125;BME280;62475;52.192;5.396;2022-08-05T01:33:47;101634.09;;;18.23;80.32
74125;BME280;62475;52.192;5.396;2022-08-05T01:36:15;101661.44;;;18.38;81.10
74125;BME280;62475;52.192;5.396;2022-08-05T01:38:44;101668.66;;;18.48;80.97
74125;BME280;62475;52.192;5.396;2022-08-05T01:41:12;101667.50;;;18.40;80.46
74125;BME280;62475;52.192;5.396;2022-08-05T01:43:39;101673.25;;;18.44;80.68
74125;BME280;62475;52.192;5.396;2022-08-05T01:46:06;101660.63;;;18.38;80.68
74125;BME280;62475;52.192;5.396;2022-08-05T01:48:34;101683.25;;;18.45;80.95
74125;BME280;62475;52.192;5.396;2022-08-05T01:51:01;101686.69;;;18.42;81.41
74125;BME280;62475;52.192;5.396;2022-08-05T01:53:27;101699.25;;;18.39;80.70
74125;BME280;62475;52.192;5.396;2022-08-05T01:55:54;101708.41;;;18.40;80.79
74125;BME280;62475;52.192;5.396;2022-08-05T01:58:24;101697.28;;;18.31;81.25
74125;BME280;62475;52.192;5.396;2022-08-05T02:00:52;101692.84;;;18.39;80.97
74125;BME280;62475;52.192;5.396;2022-08-05T02:03:33;101696.28;;;18.36;81.51
74125;BME280;62475;52.192;5.396;2022-08-05T02:06:01;101693.16;;;18.29;81.92
74125;BME280;62475;52.192;5.396;2022-08-05T02:08:29;101678.25;;;18.25;81.64
74125;BME280;62475;52.192;5.396;2022-08-05T02:10:58;101672.19;;;18.23;81.76
74125;BME280;62475;52.192;5.396;2022-08-05T02:13:32;101694.44;;;18.23;82.06
74125;BME280;62475;52.192;5.396;2022-08-05T02:16:06;101687.25;;;18.22;82.41
74125;BME280;62475;52.192;5.396;2022-08-05T02:18:49;101690.38;;;18.20;82.33
74125;BME280;62475;52.192;5.396;2022-08-05T02:21:19;101671.06;;;18.06;82.44
74125;BME280;62475;52.192;5.396;2022-08-05T02:23:54;101686.25;;;18.17;82.06
74125;BME280;62475;52.192;5.396;2022-08-05T02:26:35;101694.59;;;18.17;83.06
74125;BME280;62475;52.192;5.396;2022-08-05T02:29:03;101672.19;;;18.14;83.08
74125;BME280;62475;52.192;5.396;2022-08-05T02:31:31;101687.75;;;18.15;82.50
74125;BME280;62475;52.192;5.396;2022-08-05T02:34:06;101678.41;;;18.11;83.64
74125;BME280;62475;52.192;5.396;2022-08-05T02:36:34;101683.63;;;18.12;82.84
74125;BME280;62475;52.192;5.396;2022-08-05T02:39:02;101684.44;;;18.04;83.39
74125;BME280;62475;52.192;5.396;2022-08-05T02:41:29;101681.50;;;18.01;83.43
74125;BME280;62475;52.192;5.396;2022-08-05T02:43:56;101674.78;;;18.02;83.52
74125;BME280;62475;52.192;5.396;2022-08-05T02:46:22;101684.94;;;18.06;83.80
74125;BME280;62475;52.192;5.396;2022-08-05T02:48:48;101687.38;;;17.99;83.45
74125;BME280;62475;52.192;5.396;2022-08-05T02:51:14;101680.00;;;18.03;83.37
74125;BME280;62475;52.192;5.396;2022-08-05T02:53:41;101669.03;;;17.98;83.39
74125;BME280;62475;52.192;5.396;2022-08-05T02:56:08;101672.81;;;18.02;84.11
74125;BME280;62475;52.192;5.396;2022-08-05T02:58:36;101665.81;;;18.05;83.47
74125;BME280;62475;52.192;5.396;2022-08-05T03:01:03;101660.09;;;18.01;83.66
74125;BME280;62475;52.192;5.396;2022-08-05T03:03:29;101647.13;;;17.97;83.20
74125;BME280;62475;52.192;5.396;2022-08-05T03:05:57;101659.59;;;17.99;83.98
74125;BME280;62475;52.192;5.396;2022-08-05T03:08:23;101654.97;;;17.95;83.54
74125;BME280;62475;52.192;5.396;2022-08-05T03:10:49;101656.47;;;17.92;83.58
74125;BME280;62475;52.192;5.396;2022-08-05T03:13:15;101657.72;;;17.86;84.23
74125;BME280;62475;52.192;5.396;2022-08-05T03:15:45;101661.84;;;17.89;84.57
74125;BME280;62475;52.192;5.396;2022-08-05T03:18:11;101687.88;;;17.93;84.46
74125;BME280;62475;52.192;5.396;2022-08-05T03:20:37;101683.94;;;17.94;83.90
74125;BME280;62475;52.192;5.396;2022-08-05T03:23:07;101681.81;;;17.91;84.78
74125;BME280;62475;52.192;5.396;2022-08-05T03:25:38;101670.19;;;17.89;84.62
74125;BME280;62475;52.192;5.396;2022-08-05T03:28:06;101674.25;;;17.91;84.07
74125;BME280;62475;52.192;5.396;2022-08-05T03:30:32;101674.94;;;17.97;83.91
74125;BME280;62475;52.192;5.396;2022-08-05T03:32:58;101657.41;;;17.88;84.15
74125;BME280;62475;52.192;5.396;2022-08-05T03:35:25;101652.66;;;17.80;84.09
74125;BME280;62475;52.192;5.396;2022-08-05T03:37:51;101664.63;;;17.89;84.04
74125;BME280;62475;52.192;5.396;2022-08-05T03:40:17;101653.66;;;17.84;83.49
74125;BME280;62475;52.192;5.396;2022-08-05T03:42:43;101662.00;;;17.84;83.92
74125;BME280;62475;52.192;5.396;2022-08-05T03:45:08;101672.97;;;17.89;84.93
74125;BME280;62475;52.192;5.396;2022-08-05T03:47:34;101675.56;;;17.85;84.08
74125;BME280;62475;52.192;5.396;2022-08-05T03:49:59;101671.31;;;17.88;84.42
74125;BME280;62475;52.192;5.396;2022-08-05T03:52:27;101680.47;;;17.88;84.43
74125;BME280;62475;52.192;5.396;2022-08-05T03:55:00;101670.97;;;17.81;84.62
74125;BME280;62475;52.192;5.396;2022-08-05T03:57:29;101678.81;;;17.79;84.92
74125;BME280;62475;52.192;5.396;2022-08-05T04:00:17;101686.19;;;17.83;84.91
74125;BME280;62475;52.192;5.396;2022-08-05T04:02:47;101691.09;;;17.86;84.59
74125;BME280;62475;52.192;5.396;2022-08-05T04:05:14;101688.97;;;17.83;84.36
74125;BME280;62475;52.192;5.396;2022-08-05T04:07:41;101686.50;;;17.82;83.98
74125;BME280;62475;52.192;5.396;2022-08-05T04:10:07;101685.53;;;17.86;84.59
74125;BME280;62475;52.192;5.396;2022-08-05T04:12:33;101686.66;;;17.77;84.41
74125;BME280;62475;52.192;5.396;2022-08-05T04:14:58;101693.03;;;17.77;84.11
74125;BME280;62475;52.192;5.396;2022-08-05T04:17:24;101685.47;;;17.69;84.38
74125;BME280;62475;52.192;5.396;2022-08-05T04:19:49;101695.84;;;17.86;83.65
74125;BME280;62475;52.192;5.396;2022-08-05T04:22:15;101700.41;;;17.82;83.54
74125;BME280;62475;52.192;5.396;2022-08-05T04:24:44;101698.31;;;17.87;83.91
74125;BME280;62475;52.192;5.396;2022-08-05T04:27:13;101695.38;;;17.92;83.52
74125;BME280;62475;52.192;5.396;2022-08-05T04:29:38;101691.13;;;17.95;83.50
74125;BME280;62475;52.192;5.396;2022-08-05T04:32:05;101696.66;;;17.86;83.30
74125;BME280;62475;52.192;5.396;2022-08-05T04:34:30;101706.31;;;17.89;83.12
74125;BME280;62475;52.192;5.396;2022-08-05T04:36:55;101700.75;;;17.89;83.74
74125;BME280;62475;52.192;5.396;2022-08-05T04:39:21;101693.53;;;17.88;83.31
74125;BME280;62475;52.192;5.396;2022-08-05T04:41:46;101694.53;;;17.83;84.20
74125;BME280;62475;52.192;5.396;2022-08-05T04:44:12;101693.38;;;17.84;84.14
74125;BME280;62475;52.192;5.396;2022-08-05T04:46:38;101690.75;;;17.88;83.97
74125;BME280;62475;52.192;5.396;2022-08-05T04:49:04;101685.22;;;17.88;83.38
74125;BME280;62475;52.192;5.396;2022-08-05T04:51:30;101699.47;;;17.95;83.67
74125;BME280;62475;52.192;5.396;2022-08-05T04:53:57;101691.78;;;17.92;83.12
74125;BME280;62475;52.192;5.396;2022-08-05T04:56:22;101688.50;;;17.90;83.27
74125;BME280;62475;52.192;5.396;2022-08-05T04:58:48;101691.13;;;17.95;82.43
74125;BME280;62475;52.192;5.396;2022-08-05T05:01:13;101689.16;;;17.95;82.59
74125;BME280;62475;52.192;5.396;2022-08-05T05:03:38;101690.94;;;17.91;83.15
74125;BME280;62475;52.192;5.396;2022-08-05T05:06:04;101689.66;;;17.89;82.69
74125;BME280;62475;52.192;5.396;2022-08-05T05:08:29;101704.63;;;17.79;83.27
74125;BME280;62475;52.192;5.396;2022-08-05T05:10:55;101685.00;;;17.76;82.60
74125;BME280;62475;52.192;5.396;2022-08-05T05:13:20;101692.88;;;17.74;83.19
74125;BME280;62475;52.192;5.396;2022-08-05T05:15:46;101692.97;;;17.69;82.47
74125;BME280;62475;52.192;5.396;2022-08-05T05:18:15;101689.56;;;17.63;82.85
74125;BME280;62475;52.192;5.396;2022-08-05T05:20:44;101690.38;;;17.72;82.56
74125;BME280;62475;52.192;5.396;2022-08-05T05:23:10;101694.66;;;17.70;82.15
74125;BME280;62475;52.192;5.396;2022-08-05T05:25:35;101705.63;;;17.83;81.77
74125;BME280;62475;52.192;5.396;2022-08-05T05:28:01;101677.81;;;17.75;81.67
74125;BME280;62475;52.192;5.396;2022-08-05T05:30:26;101683.59;;;17.87;80.67
74125;BME280;62475;52.192;5.396;2022-08-05T05:32:52;101700.31;;;18.04;80.23
74125;BME280;62475;52.192;5.396;2022-08-05T05:35:18;101701.13;;;18.04;80.06
74125;BME280;62475;52.192;5.396;2022-08-05T05:37:51;101689.84;;;18.01;80.15
74125;BME280;62475;52.192;5.396;2022-08-05T05:40:19;101707.91;;;18.29;79.40
74125;BME280;62475;52.192;5.396;2022-08-05T05:42:45;101703.13;;;18.30;80.27
74125;BME280;62475;52.192;5.396;2022-08-05T05:45:11;101710.50;;;18.26;79.19
74125;BME280;62475;52.192;5.396;2022-08-05T05:47:37;101722.75;;;18.16;79.26
74125;BME280;62475;52.192;5.396;2022-08-05T05:50:02;101706.41;;;18.23;79.77
74125;BME280;62475;52.192;5.396;2022-08-05T05:52:28;101706.88;;;18.17;79.92
74125;BME280;62475;52.192;5.396;2022-08-05T05:54:54;101718.19;;;18.20;79.45
74125;BME280;62475;52.192;5.396;2022-08-05T05:57:19;101700.81;;;18.06;79.57
74125;BME280;62475;52.192;5.396;2022-08-05T05:59:45;101723.25;;;18.27;79.21
74125;BME280;62475;52.192;5.396;2022-08-05T06:02:10;101716.47;;;18.41;79.60
74125;BME280;62475;52.192;5.396;2022-08-05T06:04:35;101722.72;;;18.72;76.56
74125;BME280;62475;52.192;5.396;2022-08-05T06:07:01;101720.41;;;18.91;76.63
74125;BME280;62475;52.192;5.396;2022-08-05T06:09:26;101715.34;;;18.93;76.38
74125;BME280;62475;52.192;5.396;2022-08-05T06:11:52;101716.47;;;18.84;75.79
74125;BME280;62475;52.192;5.396;2022-08-05T06:14:18;101719.41;;;19.04;75.96
74125;BME280;62475;52.192;5.396;2022-08-05T06:16:43;101722.34;;;19.34;74.55
74125;BME280;62475;52.192;5.396;2022-08-05T06:19:08;101734.44;;;19.46;73.21
74125;BME280;62475;52.192;5.396;2022-08-05T06:21:35;101735.19;;;19.64;71.14
74125;BME280;62475;52.192;5.396;2022-08-05T06:24:00;101730.59;;;19.68;71.40
74125;BME280;62475;52.192;5.396;2022-08-05T06:26:26;101720.66;;;19.50;72.25
74125;BME280;62475;52.192;5.396;2022-08-05T06:28:51;101748.84;;;19.57;72.12
74125;BME280;62475;52.192;5.396;2022-08-05T06:31:16;101740.53;;;19.40;72.51
74125;BME280;62475;52.192;5.396;2022-08-05T06:33:42;101742.31;;;19.36;72.26
74125;BME280;62475;52.192;5.396;2022-08-05T06:36:08;101738.91;;;19.30;72.13
74125;BME280;62475;52.192;5.396;2022-08-05T06:38:33;101725.44;;;19.15;72.04
74125;BME280;62475;52.192;5.396;2022-08-05T06:40:59;101736.56;;;19.23;73.52
74125;BME280;62475;52.192;5.396;2022-08-05T06:43:24;101739.06;;;19.25;72.34
74125;BME280;62475;52.192;5.396;2022-08-05T06:45:49;101754.06;;;19.58;71.57
74125;BME280;62475;52.192;5.396;2022-08-05T06:48:15;101752.22;;;19.71;70.13
74125;BME280;62475;52.192;5.396;2022-08-05T06:50:40;101753.00;;;19.34;69.18
74125;BME280;62475;52.192;5.396;2022-08-05T06:53:05;101751.84;;;19.26;71.25
74125;BME280;62475;52.192;5.396;2022-08-05T06:55:30;101761.22;;;19.30;69.69
74125;BME280;62475;52.192;5.396;2022-08-05T06:57:56;101764.28;;;19.29;70.31
74125;BME280;62475;52.192;5.396;2022-08-05T07:00:21;101770.34;;;19.13;70.25
74125;BME280;62475;52.192;5.396;2022-08-05T07:02:46;101763.34;;;18.99;70.68
74125;BME280;62475;52.192;5.396;2022-08-05T07:05:12;101770.03;;;19.06;69.44
74125;BME280;62475;52.192;5.396;2022-08-05T07:07:39;101766.59;;;19.01;69.49
74125;BME280;62475;52.192;5.396;2022-08-05T07:10:06;101765.59;;;19.22;70.06
74125;BME280;62475;52.192;5.396;2022-08-05T07:12:31;101773.41;;;19.72;67.54
74125;BME280;62475;52.192;5.396;2022-08-05T07:15:15;101773.94;;;20.03;67.25
74125;BME280;62475;52.192;5.396;2022-08-05T07:17:59;101780.59;;;20.27;66.56
74125;BME280;62475;52.192;5.396;2022-08-05T07:20:24;101779.22;;;20.83;62.87
74125;BME280;62475;52.192;5.396;2022-08-05T07:22:50;101774.19;;;20.97;63.26
74125;BME280;62475;52.192;5.396;2022-08-05T07:25:15;101787.69;;;20.95;61.27
74125;BME280;62475;52.192;5.396;2022-08-05T07:27:40;101784.22;;;21.19;59.36
74125;BME280;62475;52.192;5.396;2022-08-05T07:30:06;101789.47;;;21.20;57.83
74125;BME280;62475;52.192;5.396;2022-08-05T07:32:36;101792.78;;;21.34;58.72
74125;BME280;62475;52.192;5.396;2022-08-05T07:35:06;101798.06;;;21.48;58.15
74125;BME280;62475;52.192;5.396;2022-08-05T07:37:32;101791.91;;;21.55;58.71
74125;BME280;62475;52.192;5.396;2022-08-05T07:39:57;101794.97;;;21.62;58.29
74125;BME280;62475;52.192;5.396;2022-08-05T07:42:22;101807.78;;;21.83;56.52
74125;BME280;62475;52.192;5.396;2022-08-05T07:44:48;101795.09;;;21.32;57.28
74125;BME280;62475;52.192;5.396;2022-08-05T07:47:13;101799.50;;;21.54;57.08
74125;BME280;62475;52.192;5.396;2022-08-05T07:49:39;101804.72;;;21.43;56.73
74125;BME280;62475;52.192;5.396;2022-08-05T07:52:04;101786.28;;;21.42;55.48
74125;BME280;62475;52.192;5.396;2022-08-05T07:54:30;101809.03;;;21.53;54.06
74125;BME280;62475;52.192;5.396;2022-08-05T07:56:55;101810.44;;;21.80;52.18
74125;BME280;62475;52.192;5.396;2022-08-05T07:59:21;101809.75;;;21.50;53.78
74125;BME280;62475;52.192;5.396;2022-08-05T08:01:46;101811.66;;;21.37;55.15
74125;BME280;62475;52.192;5.396;2022-08-05T08:04:11;101830.03;;;21.80;53.40
74125;BME280;62475;52.192;5.396;2022-08-05T08:06:37;101831.91;;;21.88;52.89
74125;BME280;62475;52.192;5.396;2022-08-05T08:09:02;101814.72;;;21.77;53.21
74125;BME280;62475;52.192;5.396;2022-08-05T08:11:27;101834.00;;;21.79;53.46
74125;BME280;62475;52.192;5.396;2022-08-05T08:13:53;101833.25;;;21.70;54.38
74125;BME280;62475;52.192;5.396;2022-08-05T08:16:19;101839.88;;;21.44;54.10
74125;BME280;62475;52.192;5.396;2022-08-05T08:18:45;101837.88;;;21.33;54.94
74125;BME280;62475;52.192;5.396;2022-08-05T08:21:10;101824.84;;;21.37;54.13
74125;BME280;62475;52.192;5.396;2022-08-05T08:23:35;101840.66;;;21.33;56.14
74125;BME280;62475;52.192;5.396;2022-08-05T08:26:01;101837.69;;;21.50;54.44
74125;BME280;62475;52.192;5.396;2022-08-05T08:28:27;101842.41;;;21.37;53.11
74125;BME280;62475;52.192;5.396;2022-08-05T08:30:52;101843.53;;;21.78;52.42
74125;BME280;62475;52.192;5.396;2022-08-05T08:33:17;101845.44;;;21.86;53.17
74125;BME280;62475;52.192;5.396;2022-08-05T08:35:43;101860.31;;;21.78;52.11
74125;BME280;62475;52.192;5.396;2022-08-05T08:38:08;101860.53;;;22.17;52.18
74125;BME280;62475;52.192;5.396;2022-08-05T08:40:34;101857.53;;;22.34;51.78
74125;BME280;62475;52.192;5.396;2022-08-05T08:43:00;101847.25;;;22.26;49.57
74125;BME280;62475;52.192;5.396;2022-08-05T08:45:26;101859.00;;;22.08;50.37
74125;BME280;62475;52.192;5.396;2022-08-05T08:47:53;101860.56;;;21.85;51.42
74125;BME280;62475;52.192;5.396;2022-08-05T08:50:19;101860.63;;;21.97;51.65
74125;BME280;62475;52.192;5.396;2022-08-05T08:52:51;101872.22;;;22.19;50.70
74125;BME280;62475;52.192;5.396;2022-08-05T08:55:19;101869.84;;;22.09;51.20
74125;BME280;62475;52.192;5.396;2022-08-05T08:57:46;101876.91;;;21.95;50.99
74125;BME280;62475;52.192;5.396;2022-08-05T09:00:12;101862.31;;;21.89;51.08
74125;BME280;62475;52.192;5.396;2022-08-05T09:02:38;101876.41;;;22.13;49.40
74125;BME280;62475;52.192;5.396;2022-08-05T09:05:04;101869.50;;;22.11;50.38
74125;BME280;62475;52.192;5.396;2022-08-05T09:07:30;101875.84;;;22.32;51.35
74125;BME280;62475;52.192;5.396;2022-08-05T09:09:55;101875.16;;;22.47;49.93
74125;BME280;62475;52.192;5.396;2022-08-05T09:12:20;101870.66;;;22.67;48.14
74125;BME280;62475;52.192;5.396;2022-08-05T09:14:46;101883.66;;;22.26;50.96
74125;BME280;62475;52.192;5.396;2022-08-05T09:17:11;101887.97;;;22.24;50.51
74125;BME280;62475;52.192;5.396;2022-08-05T09:19:37;101892.75;;;22.23;49.73
74125;BME280;62475;52.192;5.396;2022-08-05T09:22:03;101894.13;;;22.74;47.96
74125;BME280;62475;52.192;5.396;2022-08-05T09:24:28;101889.97;;;22.35;45.46
74125;BME280;62475;52.192;5.396;2022-08-05T09:26:56;101877.75;;;22.64;45.18
74125;BME280;62475;52.192;5.396;2022-08-05T09:29:43;101893.59;;;22.48;45.63
74125;BME280;62475;52.192;5.396;2022-08-05T09:32:12;101871.63;;;22.38;45.15
74125;BME280;62475;52.192;5.396;2022-08-05T09:34:52;101901.69;;;22.86;44.46
74125;BME280;62475;52.192;5.396;2022-08-05T09:37:23;101896.16;;;22.41;44.80
74125;BME280;62475;52.192;5.396;2022-08-05T09:39:48;101907.66;;;22.60;46.83
74125;BME280;62475;52.192;5.396;2022-08-05T09:42:16;101914.19;;;22.19;47.29
74125;BME280;62475;52.192;5.396;2022-08-05T09:44:46;101920.19;;;21.97;46.53
74125;BME280;62475;52.192;5.396;2022-08-05T09:47:23;101935.84;;;21.78;48.13
74125;BME280;62475;52.192;5.396;2022-08-05T09:49:50;101934.63;;;21.87;44.76
74125;BME280;62475;52.192;5.396;2022-08-05T09:57:44;101935.22;;;21.52;41.94
74125;BME280;62475;52.192;5.396;2022-08-05T10:00:21;101920.09;;;21.53;42.71
74125;BME280;62475;52.192;5.396;2022-08-05T10:02:51;101950.66;;;21.37;44.29
74125;BME280;62475;52.192;5.396;2022-08-05T10:05:22;101949.41;;;21.26;44.47
74125;BME280;62475;52.192;5.396;2022-08-05T10:08:02;101947.09;;;21.28;43.32
74125;BME280;62475;52.192;5.396;2022-08-05T10:10:35;101945.31;;;21.44;44.02
74125;BME280;62475;52.192;5.396;2022-08-05T10:13:02;101936.19;;;21.35;43.11
74125;BME280;62475;52.192;5.396;2022-08-05T10:15:36;101938.91;;;21.43;45.51
74125;BME280;62475;52.192;5.396;2022-08-05T10:20:35;101937.28;;;21.84;44.37
74125;BME280;62475;52.192;5.396;2022-08-05T10:23:01;101948.56;;;21.67;44.15
74125;BME280;62475;52.192;5.396;2022-08-05T10:25:27;101939.31;;;21.95;44.29
74125;BME280;62475;52.192;5.396;2022-08-05T10:27:53;101925.81;;;21.77;40.56
74125;BME280;62475;52.192;5.396;2022-08-05T10:30:21;101945.66;;;22.04;39.18
74125;BME280;62475;52.192;5.396;2022-08-05T10:32:46;101953.78;;;21.97;38.41
74125;BME280;62475;52.192;5.396;2022-08-05T10:35:13;101959.66;;;21.63;37.31
74125;BME280;62475;52.192;5.396;2022-08-05T10:37:39;101962.81;;;21.82;37.00
74125;BME280;62475;52.192;5.396;2022-08-05T10:40:09;101930.78;;;21.71;38.13
74125;BME280;62475;52.192;5.396;2022-08-05T10:42:38;101946.94;;;21.66;35.46
74125;BME280;62475;52.192;5.396;2022-08-05T10:45:04;101953.66;;;21.94;36.39
74125;BME280;62475;52.192;5.396;2022-08-05T10:47:31;101964.34;;;21.92;37.06
74125;BME280;62475;52.192;5.396;2022-08-05T10:50:04;101971.66;;;22.49;34.60
74125;BME280;62475;52.192;5.396;2022-08-05T10:52:40;101967.06;;;22.33;37.07
74125;BME280;62475;52.192;5.396;2022-08-05T10:55:09;101968.06;;;22.16;36.69
74125;BME280;62475;52.192;5.396;2022-08-05T10:57:35;101969.22;;;22.48;36.04
74125;BME280;62475;52.192;5.396;2022-08-05T11:00:19;101980.03;;;22.70;37.38
74125;BME280;62475;52.192;5.396;2022-08-05T11:05:32;101987.66;;;22.49;37.54
74125;BME280;62475;52.192;5.396;2022-08-05T11:08:03;101976.16;;;22.30;38.48
74125;BME280;62475;52.192;5.396;2022-08-05T11:10:30;101992.34;;;21.92;39.46
74125;BME280;62475;52.192;5.396;2022-08-05T11:12:57;102007.44;;;21.79;39.70
74125;BME280;62475;52.192;5.396;2022-08-05T11:15:23;102007.56;;;21.82;38.30
74125;BME280;62475;52.192;5.396;2022-08-05T11:18:06;101990.28;;;22.01;39.22
74125;BME280;62475;52.192;5.396;2022-08-05T11:20:37;101996.94;;;22.29;40.24
74125;BME280;62475;52.192;5.396;2022-08-05T11:23:42;102004.09;;;22.50;40.12
74125;BME280;62475;52.192;5.396;2022-08-05T11:28:46;102012.66;;;23.11;37.88
74125;BME280;62475;52.192;5.396;2022-08-05T11:33:40;102019.84;;;22.43;39.03
74125;BME280;62475;52.192;5.396;2022-08-05T11:36:18;102015.41;;;22.42;39.58
74125;BME280;62475;52.192;5.396;2022-08-05T11:41:24;102030.81;;;22.15;40.12
74125;BME280;62475;52.192;5.396;2022-08-05T11:44:18;102038.28;;;22.11;39.87
74125;BME280;62475;52.192;5.396;2022-08-05T11:46:51;102048.78;;;21.94;41.42
74125;BME280;62475;52.192;5.396;2022-08-05T11:49:20;102050.34;;;21.54;41.83
74125;BME280;62475;52.192;5.396;2022-08-05T11:51:48;102061.06;;;21.22;44.57
74125;BME280;62475;52.192;5.396;2022-08-05T11:54:21;102057.66;;;21.08;46.40
74125;BME280;62475;52.192;5.396;2022-08-05T11:56:52;102058.84;;;20.90;46.99
74125;BME280;62475;52.192;5.396;2022-08-05T11:59:22;102056.34;;;20.97;46.41
74125;BME280;62475;52.192;5.396;2022-08-05T12:02:03;102069.69;;;21.00;42.68
74125;BME280;62475;52.192;5.396;2022-08-05T12:04:46;102070.69;;;20.87;42.75
74125;BME280;62475;52.192;5.396;2022-08-05T12:07:14;102071.63;;;21.08;42.48
74125;BME280;62475;52.192;5.396;2022-08-05T12:09:48;102084.28;;;21.06;40.94
74125;BME280;62475;52.192;5.396;2022-08-05T12:12:20;102075.13;;;21.34;42.95
74125;BME280;62475;52.192;5.396;2022-08-05T12:14:46;102098.75;;;21.46;41.23
74125;BME280;62475;52.192;5.396;2022-08-05T12:17:13;102091.47;;;21.24;44.84
74125;BME280;62475;52.192;5.396;2022-08-05T12:19:47;102091.84;;;21.14;47.28
74125;BME280;62475;52.192;5.396;2022-08-05T12:22:18;102094.75;;;21.26;47.81
74125;BME280;62475;52.192;5.396;2022-08-05T12:24:45;102100.53;;;21.50;49.39
74125;BME280;62475;52.192;5.396;2022-08-05T12:27:21;102092.63;;;21.23;48.53
74125;BME280;62475;52.192;5.396;2022-08-05T12:30:16;102103.69;;;20.94;51.35
74125;BME280;62475;52.192;5.396;2022-08-05T12:32:44;102099.09;;;20.89;51.73
74125;BME280;62475;52.192;5.396;2022-08-05T12:35:10;102110.44;;;21.01;51.88
74125;BME280;62475;52.192;5.396;2022-08-05T12:37:36;102091.72;;;20.93;51.10
74125;BME280;62475;52.192;5.396;2022-08-05T12:40:02;102090.66;;;21.15;51.24
74125;BME280;62475;52.192;5.396;2022-08-05T12:42:28;102116.94;;;21.22;51.35
74125;BME280;62475;52.192;5.396;2022-08-05T12:45:06;102119.66;;;21.02;52.20
74125;BME280;62475;52.192;5.396;2022-08-05T12:47:31;102126.78;;;20.57;53.53
74125;BME280;62475;52.192;5.396;2022-08-05T12:49:58;102133.16;;;20.74;53.66
74125;BME280;62475;52.192;5.396;2022-08-05T12:52:24;102117.03;;;20.71;54.08
74125;BME280;62475;52.192;5.396;2022-08-05T12:54:49;102133.06;;;21.17;53.28
74125;BME280;62475;52.192;5.396;2022-08-05T12:57:15;102128.50;;;21.12;53.09
74125;BME280;62475;52.192;5.396;2022-08-05T12:59:48;102131.47;;;20.90;52.01
74125;BME280;62475;52.192;5.396;2022-08-05T13:02:24;102133.94;;;21.09;53.72
74125;BME280;62475;52.192;5.396;2022-08-05T13:04:51;102132.41;;;21.20;54.52
74125;BME280;62475;52.192;5.396;2022-08-05T13:07:19;102133.41;;;21.15;51.76
74125;BME280;62475;52.192;5.396;2022-08-05T13:09:52;102119.13;;;21.08;51.69
74125;BME280;62475;52.192;5.396;2022-08-05T13:12:20;102138.31;;;21.18;49.18
74125;BME280;62475;52.192;5.396;2022-08-05T13:14:51;102141.66;;;21.50;48.72
74125;BME280;62475;52.192;5.396;2022-08-05T13:17:21;102139.69;;;21.50;47.12
74125;BME280;62475;52.192;5.396;2022-08-05T13:20:03;102145.84;;;21.35;47.27
74125;BME280;62475;52.192;5.396;2022-08-05T13:22:35;102148.38;;;21.19;48.20